This is the latest recevied weather packets stored in our database for station/object EA1GHG-11. If no packets are shown the sender has not sent any weather packets the latest 10 day(s).
| Time | Temp. | Humidity | Pressure | Rain* | Wind** | Luminosity | Snow |
|---|---|---|---|---|---|---|---|
| 1777392401 | 21.67° C | 99% | 1012.8 hPa | - | - | - | - |
| 1777390901 | 21.67° C | 90% | 1012.6 hPa | - | - | - | - |
| 1777389401 | 22.78° C | 92% | 1012.4 hPa | - | - | - | - |
| 1777387900 | 25° C | 55% | 1011.9 hPa | - | - | - | - |
| 1777386400 | 27.22° C | 47% | 1012.1 hPa | - | - | - | - |
| 1777384900 | 27.22° C | 43% | 1012.5 hPa | - | - | - | - |
| 1777383400 | 27.22° C | 50% | 1012.6 hPa | - | - | - | - |
| 1777381899 | 25° C | 81% | 1012.8 hPa | - | - | - | - |
| 1777380398 | 26.11° C | 85% | 1013.4 hPa | - | - | - | - |
| 1777378898 | 23.89° C | 100% | 1013.9 hPa | - | - | - | - |
| 1777376800 | 23.33° C | 100% | 1014.7 hPa | - | - | - | - |
| 1777375300 | 24.44° C | 98% | 1015.1 hPa | - | - | - | - |
| 1777373799 | 22.22° C | 100% | 1015.4 hPa | - | - | - | - |
| 1777372299 | 21.67° C | 100% | 1015.6 hPa | - | - | - | - |
| 1777370799 | 20.56° C | 100% | 1015.6 hPa | - | - | - | - |
| 1777369299 | 20.56° C | 100% | 1015.7 hPa | - | - | - | - |
| 1777367799 | 19.44° C | 100% | 1015.8 hPa | - | - | - | - |
| 1777366299 | 17.78° C | 100% | 1015.9 hPa | - | - | - | - |
| 1777364799 | 17.22° C | 100% | 1016.1 hPa | - | - | - | - |
| 1777363299 | 16.67° C | 100% | 1016.2 hPa | - | - | - | - |
| 1777361798 | 15° C | 100% | 1016.1 hPa | - | - | - | - |
| 1777360298 | 13.33° C | 100% | 1016.1 hPa | - | - | - | - |
| 1777358798 | 12.78° C | 100% | 1016.1 hPa | - | - | - | - |
| 1777357297 | 11.11° C | 100% | 1015.9 hPa | - | - | - | - |
| 1777356698 | 11.11° C | 100% | 1015.8 hPa | - | - | - | - |
* Rain since midnight (hover to see other rain measurements)
** Current wind speed in m/s (hover to see current wind gust speed)